Terminal Aerodrome Forecast
Issued by NWS

Current Version | Previous Version | Text Only | Print | Product List | Glossary On
Versions: 1 2 3 4 5 6 7 8 9 10 11 12 13 14
289
FTUS42 TJSJ 122320
TAFJSJ
TAF
TJSJ 122320Z 1300/1324 11005KT P6SM FEW060
     FM131400 VRB03KT P6SM SCT030
     FM131600 32005KT P6SM SCT030
     FM131900 02007KT P6SM BKN040=

USA.gov is the U.S. government's official web portal to all federal, state and local government web resources and services.